sensor_id;sensor_type;location;lat;lon;timestamp;pressure;altitude;pressure_sealevel;temperature;humidity
54389;BME280;40975;50.390;8.640;2023-04-03T00:01:01;100145.09;;;3.00;100.00
54389;BME280;40975;50.390;8.640;2023-04-03T00:03:27;100154.81;;;2.98;100.00
54389;BME280;40975;50.390;8.640;2023-04-03T00:05:52;100154.69;;;3.01;100.00
54389;BME280;40975;50.390;8.640;2023-04-03T00:08:17;100145.09;;;3.00;100.00
54389;BME280;40975;50.390;8.640;2023-04-03T00:10:43;100144.41;;;2.97;100.00
54389;BME280;40975;50.390;8.640;2023-04-03T00:13:09;100146.94;;;2.98;100.00
54389;BME280;40975;50.390;8.640;2023-04-03T00:15:35;100149.69;;;2.95;100.00
54389;BME280;40975;50.390;8.640;2023-04-03T00:18:01;100151.41;;;2.96;100.00
54389;BME280;40975;50.390;8.640;2023-04-03T00:20:27;100147.88;;;2.97;100.00
54389;BME280;40975;50.390;8.640;2023-04-03T00:22:53;100152.09;;;3.00;100.00
54389;BME280;40975;50.390;8.640;2023-04-03T00:25:19;100147.72;;;3.00;100.00
54389;BME280;40975;50.390;8.640;2023-04-03T00:27:45;100144.25;;;3.00;100.00
54389;BME280;40975;50.390;8.640;2023-04-03T00:30:13;100139.94;;;2.99;100.00
54389;BME280;40975;50.390;8.640;2023-04-03T00:32:39;100137.53;;;2.94;100.00
54389;BME280;40975;50.390;8.640;2023-04-03T00:35:05;100142.00;;;2.92;100.00
54389;BME280;40975;50.390;8.640;2023-04-03T00:37:30;100140.91;;;2.96;100.00
54389;BME280;40975;50.390;8.640;2023-04-03T00:39:56;100153.09;;;2.97;100.00
54389;BME280;40975;50.390;8.640;2023-04-03T00:42:21;100148.78;;;2.96;100.00
54389;BME280;40975;50.390;8.640;2023-04-03T00:47:13;100140.00;;;2.97;100.00
54389;BME280;40975;50.390;8.640;2023-04-03T00:49:40;100140.69;;;3.01;100.00
54389;BME280;40975;50.390;8.640;2023-04-03T00:52:10;100137.94;;;3.04;100.00
54389;BME280;40975;50.390;8.640;2023-04-03T00:54:37;100142.25;;;3.05;100.00
54389;BME280;40975;50.390;8.640;2023-04-03T00:57:05;100135.31;;;3.04;100.00
54389;BME280;40975;50.390;8.640;2023-04-03T00:59:33;100137.50;;;3.13;100.00
54389;BME280;40975;50.390;8.640;2023-04-03T01:02:00;100137.81;;;3.07;100.00
54389;BME280;40975;50.390;8.640;2023-04-03T01:04:37;100134.31;;;3.06;100.00
54389;BME280;40975;50.390;8.640;2023-04-03T01:07:24;100129.06;;;3.06;100.00
54389;BME280;40975;50.390;8.640;2023-04-03T01:09:56;100132.78;;;3.02;100.00
54389;BME280;40975;50.390;8.640;2023-04-03T01:12:32;100138.72;;;3.06;100.00
54389;BME280;40975;50.390;8.640;2023-04-03T01:15:00;100137.38;;;2.97;100.00
54389;BME280;40975;50.390;8.640;2023-04-03T01:20:34;100138.28;;;2.96;100.00
54389;BME280;40975;50.390;8.640;2023-04-03T01:23:24;100136.59;;;2.95;100.00
54389;BME280;40975;50.390;8.640;2023-04-03T01:25:53;100134.75;;;2.97;100.00
54389;BME280;40975;50.390;8.640;2023-04-03T01:30:53;100140.44;;;2.88;100.00
54389;BME280;40975;50.390;8.640;2023-04-03T01:33:21;100140.38;;;2.89;100.00
54389;BME280;40975;50.390;8.640;2023-04-03T01:35:47;100140.38;;;2.89;100.00
54389;BME280;40975;50.390;8.640;2023-04-03T01:38:13;100144.41;;;2.97;100.00
54389;BME280;40975;50.390;8.640;2023-04-03T01:40:38;100144.69;;;2.90;100.00
54389;BME280;40975;50.390;8.640;2023-04-03T01:43:04;100144.84;;;2.87;100.00
54389;BME280;40975;50.390;8.640;2023-04-03T01:45:29;100147.53;;;2.86;100.00
54389;BME280;40975;50.390;8.640;2023-04-03T01:47:55;100145.81;;;2.85;100.00
54389;BME280;40975;50.390;8.640;2023-04-03T01:50:23;100145.06;;;2.83;100.00
54389;BME280;40975;50.390;8.640;2023-04-03T01:52:48;100143.97;;;2.87;100.00
54389;BME280;40975;50.390;8.640;2023-04-03T01:55:13;100146.69;;;2.85;100.00
54389;BME280;40975;50.390;8.640;2023-04-03T01:57:40;100152.84;;;2.84;100.00
54389;BME280;40975;50.390;8.640;2023-04-03T02:00:06;100152.63;;;2.89;100.00
54389;BME280;40975;50.390;8.640;2023-04-03T02:02:38;100153.09;;;2.97;100.00
54389;BME280;40975;50.390;8.640;2023-04-03T02:05:04;100155.81;;;2.95;100.00
54389;BME280;40975;50.390;8.640;2023-04-03T02:07:29;100149.31;;;2.85;100.00
54389;BME280;40975;50.390;8.640;2023-04-03T02:09:54;100149.00;;;2.91;100.00
54389;BME280;40975;50.390;8.640;2023-04-03T02:12:20;100156.50;;;2.80;100.00
54389;BME280;40975;50.390;8.640;2023-04-03T02:14:45;100156.09;;;2.70;100.00
54389;BME280;40975;50.390;8.640;2023-04-03T02:17:11;100157.09;;;2.68;100.00
54389;BME280;40975;50.390;8.640;2023-04-03T02:19:36;100160.69;;;2.65;100.00
54389;BME280;40975;50.390;8.640;2023-04-03T02:22:05;100157.81;;;2.71;100.00
54389;BME280;40975;50.390;8.640;2023-04-03T02:24:31;100153.69;;;2.66;100.00
54389;BME280;40975;50.390;8.640;2023-04-03T02:26:58;100164.31;;;2.62;100.00
54389;BME280;40975;50.390;8.640;2023-04-03T02:29:24;100168.44;;;2.68;100.00
54389;BME280;40975;50.390;8.640;2023-04-03T02:31:50;100170.44;;;2.63;100.00
54389;BME280;40975;50.390;8.640;2023-04-03T02:34:16;100167.16;;;2.58;100.00
54389;BME280;40975;50.390;8.640;2023-04-03T02:36:43;100161.78;;;2.61;100.00
54389;BME280;40975;50.390;8.640;2023-04-03T02:39:11;100174.31;;;2.54;100.00
54389;BME280;40975;50.390;8.640;2023-04-03T02:41:37;100165.94;;;2.46;100.00
54389;BME280;40975;50.390;8.640;2023-04-03T02:44:09;100167.16;;;2.39;100.00
54389;BME280;40975;50.390;8.640;2023-04-03T02:46:35;100169.91;;;2.36;100.00
54389;BME280;40975;50.390;8.640;2023-04-03T02:49:02;100170.88;;;2.33;100.00
54389;BME280;40975;50.390;8.640;2023-04-03T02:51:27;100177.25;;;2.27;100.00
54389;BME280;40975;50.390;8.640;2023-04-03T02:53:53;100172.22;;;2.23;100.00
54389;BME280;40975;50.390;8.640;2023-04-03T02:56:24;100168.94;;;2.17;100.00
54389;BME280;40975;50.390;8.640;2023-04-03T02:58:49;100174.25;;;2.16;100.00
54389;BME280;40975;50.390;8.640;2023-04-03T03:01:17;100171.03;;;2.09;100.00
54389;BME280;40975;50.390;8.640;2023-04-03T03:03:42;100172.81;;;2.09;100.00
54389;BME280;40975;50.390;8.640;2023-04-03T03:06:13;100177.78;;;2.15;100.00
54389;BME280;40975;50.390;8.640;2023-04-03T03:08:40;100180.69;;;2.09;100.00
54389;BME280;40975;50.390;8.640;2023-04-03T03:11:06;100170.78;;;1.95;100.00
54389;BME280;40975;50.390;8.640;2023-04-03T03:13:32;100173.84;;;1.84;100.00
54389;BME280;40975;50.390;8.640;2023-04-03T03:15:58;100172.53;;;1.74;100.00
54389;BME280;40975;50.390;8.640;2023-04-03T03:18:24;100167.03;;;1.59;100.00
54389;BME280;40975;50.390;8.640;2023-04-03T03:20:54;100173.56;;;1.49;100.00
54389;BME280;40975;50.390;8.640;2023-04-03T03:23:20;100171.19;;;1.43;100.00
54389;BME280;40975;50.390;8.640;2023-04-03T03:25:46;100167.38;;;1.29;100.00
54389;BME280;40975;50.390;8.640;2023-04-03T03:28:11;100171.38;;;1.38;100.00
54389;BME280;40975;50.390;8.640;2023-04-03T03:30:37;100174.97;;;1.35;100.00
54389;BME280;40975;50.390;8.640;2023-04-03T03:33:02;100172.72;;;1.26;100.00
54389;BME280;40975;50.390;8.640;2023-04-03T03:35:28;100172.31;;;1.15;100.00
54389;BME280;40975;50.390;8.640;2023-04-03T03:37:54;100170.88;;;1.06;100.00
54389;BME280;40975;50.390;8.640;2023-04-03T03:40:19;100176.00;;;1.09;100.00
54389;BME280;40975;50.390;8.640;2023-04-03T03:42:45;100179.63;;;1.05;100.00
54389;BME280;40975;50.390;8.640;2023-04-03T03:45:10;100177.34;;;0.97;100.00
54389;BME280;40975;50.390;8.640;2023-04-03T03:47:36;100177.47;;;0.94;100.00
54389;BME280;40975;50.390;8.640;2023-04-03T03:50:01;100181.25;;;0.85;100.00
54389;BME280;40975;50.390;8.640;2023-04-03T03:52:27;100183.09;;;0.83;100.00
54389;BME280;40975;50.390;8.640;2023-04-03T03:54:53;100185.81;;;0.80;100.00
54389;BME280;40975;50.390;8.640;2023-04-03T03:57:18;100186.66;;;0.81;100.00
54389;BME280;40975;50.390;8.640;2023-04-03T03:59:44;100192.25;;;0.71;100.00
54389;BME280;40975;50.390;8.640;2023-04-03T04:02:11;100186.28;;;0.68;100.00
54389;BME280;40975;50.390;8.640;2023-04-03T04:04:36;100189.25;;;0.58;100.00
54389;BME280;40975;50.390;8.640;2023-04-03T04:07:02;100188.25;;;0.61;100.00
54389;BME280;40975;50.390;8.640;2023-04-03T04:09:29;100186.06;;;0.50;100.00
54389;BME280;40975;50.390;8.640;2023-04-03T04:11:56;100187.06;;;0.46;100.00
54389;BME280;40975;50.390;8.640;2023-04-03T04:14:21;100188.16;;;0.40;100.00
54389;BME280;40975;50.390;8.640;2023-04-03T04:16:48;100197.13;;;0.33;100.00
54389;BME280;40975;50.390;8.640;2023-04-03T04:19:19;100192.22;;;0.24;100.00
54389;BME280;40975;50.390;8.640;2023-04-03T04:21:45;100188.03;;;0.20;100.00
54389;BME280;40975;50.390;8.640;2023-04-03T04:24:10;100194.16;;;0.19;100.00
54389;BME280;40975;50.390;8.640;2023-04-03T04:26:37;100194.47;;;0.09;100.00
54389;BME280;40975;50.390;8.640;2023-04-03T04:29:03;100192.81;;;0.07;100.00
54389;BME280;40975;50.390;8.640;2023-04-03T04:31:32;100188.47;;;0.07;100.00
54389;BME280;40975;50.390;8.640;2023-04-03T04:33:57;100190.84;;;0.13;100.00
54389;BME280;40975;50.390;8.640;2023-04-03T04:36:23;100197.50;;;-0.03;100.00
54389;BME280;40975;50.390;8.640;2023-04-03T04:38:48;100194.16;;;-0.07;100.00
54389;BME280;40975;50.390;8.640;2023-04-03T04:41:14;100196.81;;;-0.08;100.00
54389;BME280;40975;50.390;8.640;2023-04-03T04:43:40;100193.56;;;-0.15;100.00
54389;BME280;40975;50.390;8.640;2023-04-03T04:46:08;100196.31;;;-0.20;100.00
54389;BME280;40975;50.390;8.640;2023-04-03T04:48:40;100193.59;;;-0.17;100.00
54389;BME280;40975;50.390;8.640;2023-04-03T04:51:06;100200.47;;;-0.14;100.00
54389;BME280;40975;50.390;8.640;2023-04-03T04:53:34;100194.88;;;-0.28;100.00
54389;BME280;40975;50.390;8.640;2023-04-03T04:56:00;100199.50;;;-0.37;100.00
54389;BME280;40975;50.390;8.640;2023-04-03T04:58:25;100204.44;;;-0.29;100.00
54389;BME280;40975;50.390;8.640;2023-04-03T05:01:05;100206.47;;;-0.37;100.00
54389;BME280;40975;50.390;8.640;2023-04-03T05:03:33;100207.03;;;-0.27;100.00
54389;BME280;40975;50.390;8.640;2023-04-03T05:05:58;100212.34;;;-0.30;100.00
54389;BME280;40975;50.390;8.640;2023-04-03T05:08:24;100213.22;;;-0.32;100.00
54389;BME280;40975;50.390;8.640;2023-04-03T05:10:49;100211.69;;;-0.37;100.00
54389;BME280;40975;50.390;8.640;2023-04-03T05:13:17;100215.75;;;-0.28;100.00
54389;BME280;40975;50.390;8.640;2023-04-03T05:15:43;100213.28;;;-0.33;100.00
54389;BME280;40975;50.390;8.640;2023-04-03T05:18:08;100225.69;;;-0.40;100.00
54389;BME280;40975;50.390;8.640;2023-04-03T05:20:34;100235.06;;;-0.34;100.00
54389;BME280;40975;50.390;8.640;2023-04-03T05:23:00;100230.53;;;-0.29;100.00
54389;BME280;40975;50.390;8.640;2023-04-03T05:25:26;100237.28;;;-0.22;100.00
54389;BME280;40975;50.390;8.640;2023-04-03T05:27:51;100239.06;;;-0.24;100.00
54389;BME280;40975;50.390;8.640;2023-04-03T05:30:17;100240.13;;;-0.29;100.00
54389;BME280;40975;50.390;8.640;2023-04-03T05:32:44;100247.50;;;-0.16;100.00
54389;BME280;40975;50.390;8.640;2023-04-03T05:35:17;100248.63;;;-0.23;100.00
54389;BME280;40975;50.390;8.640;2023-04-03T05:37:44;100254.53;;;-0.18;100.00
54389;BME280;40975;50.390;8.640;2023-04-03T05:40:10;100249.00;;;-0.08;100.00
54389;BME280;40975;50.390;8.640;2023-04-03T05:42:38;100250.84;;;-0.12;100.00
54389;BME280;40975;50.390;8.640;2023-04-03T05:45:03;100259.50;;;-0.10;100.00
54389;BME280;40975;50.390;8.640;2023-04-03T05:47:29;100264.41;;;-0.01;100.00
54389;BME280;40975;50.390;8.640;2023-04-03T05:49:56;100266.81;;;0.06;100.00
54389;BME280;40975;50.390;8.640;2023-04-03T05:54:50;100269.25;;;0.10;100.00
54389;BME280;40975;50.390;8.640;2023-04-03T05:57:22;100264.16;;;0.07;100.00
54389;BME280;40975;50.390;8.640;2023-04-03T05:59:48;100270.13;;;0.11;100.00
54389;BME280;40975;50.390;8.640;2023-04-03T06:02:16;100273.22;;;0.22;100.00
54389;BME280;40975;50.390;8.640;2023-04-03T06:04:43;100274.50;;;0.36;100.00
54389;BME280;40975;50.390;8.640;2023-04-03T06:07:14;100278.06;;;0.33;100.00
54389;BME280;40975;50.390;8.640;2023-04-03T06:09:41;100275.03;;;0.45;100.00
54389;BME280;40975;50.390;8.640;2023-04-03T06:12:07;100277.56;;;0.49;100.00
54389;BME280;40975;50.390;8.640;2023-04-03T06:14:32;100287.06;;;0.75;100.00
54389;BME280;40975;50.390;8.640;2023-04-03T06:16:57;100293.66;;;0.61;100.00
54389;BME280;40975;50.390;8.640;2023-04-03T06:19:23;100293.31;;;0.71;100.00
54389;BME280;40975;50.390;8.640;2023-04-03T06:21:53;100302.31;;;0.62;100.00
54389;BME280;40975;50.390;8.640;2023-04-03T06:24:19;100299.44;;;0.70;100.00
54389;BME280;40975;50.390;8.640;2023-04-03T06:26:46;100307.94;;;1.00;100.00
54389;BME280;40975;50.390;8.640;2023-04-03T06:29:12;100304.13;;;1.09;100.00
54389;BME280;40975;50.390;8.640;2023-04-03T06:31:38;100305.03;;;1.32;100.00
54389;BME280;40975;50.390;8.640;2023-04-03T06:34:04;100306.56;;;1.60;100.00
54389;BME280;40975;50.390;8.640;2023-04-03T06:36:29;100312.59;;;2.27;100.00
54389;BME280;40975;50.390;8.640;2023-04-03T06:38:55;100308.94;;;3.31;99.26
54389;BME280;40975;50.390;8.640;2023-04-03T06:41:20;100315.63;;;4.29;92.44
54389;BME280;40975;50.390;8.640;2023-04-03T06:43:46;100311.84;;;4.53;86.81
54389;BME280;40975;50.390;8.640;2023-04-03T06:46:25;100319.69;;;5.37;83.73
54389;BME280;40975;50.390;8.640;2023-04-03T06:48:51;100318.75;;;6.02;78.13
54389;BME280;40975;50.390;8.640;2023-04-03T06:51:22;100322.28;;;5.85;76.95
54389;BME280;40975;50.390;8.640;2023-04-03T06:53:49;100322.72;;;6.40;76.47
54389;BME280;40975;50.390;8.640;2023-04-03T06:56:15;100335.06;;;6.09;76.47
54389;BME280;40975;50.390;8.640;2023-04-03T06:58:41;100335.69;;;5.01;78.36
54389;BME280;40975;50.390;8.640;2023-04-03T07:01:07;100342.38;;;4.38;83.59
54389;BME280;40975;50.390;8.640;2023-04-03T07:03:32;100350.19;;;6.05;79.66
54389;BME280;40975;50.390;8.640;2023-04-03T07:05:58;100344.38;;;4.67;80.36
54389;BME280;40975;50.390;8.640;2023-04-03T07:08:23;100350.47;;;3.79;85.93
54389;BME280;40975;50.390;8.640;2023-04-03T07:10:48;100359.34;;;3.19;88.06
54389;BME280;40975;50.390;8.640;2023-04-03T07:13:15;100369.00;;;3.18;89.26
54389;BME280;40975;50.390;8.640;2023-04-03T07:15:40;100364.44;;;2.82;91.31
54389;BME280;40975;50.390;8.640;2023-04-03T07:18:06;100366.75;;;2.69;92.54
54389;BME280;40975;50.390;8.640;2023-04-03T07:20:31;100361.41;;;2.91;94.10
54389;BME280;40975;50.390;8.640;2023-04-03T07:22:57;100360.56;;;4.05;89.86
54389;BME280;40975;50.390;8.640;2023-04-03T07:25:22;100371.47;;;5.37;85.31
54389;BME280;40975;50.390;8.640;2023-04-03T07:27:47;100363.31;;;6.37;77.45
54389;BME280;40975;50.390;8.640;2023-04-03T07:30:14;100349.53;;;6.63;72.37
54389;BME280;40975;50.390;8.640;2023-04-03T07:32:39;100348.00;;;7.74;69.01
54389;BME280;40975;50.390;8.640;2023-04-03T07:35:05;100356.69;;;7.76;69.28
54389;BME280;40975;50.390;8.640;2023-04-03T07:37:31;100363.94;;;7.87;68.81
54389;BME280;40975;50.390;8.640;2023-04-03T07:39:57;100358.44;;;7.90;68.36
54389;BME280;40975;50.390;8.640;2023-04-03T07:42:24;100361.28;;;8.15;68.66
54389;BME280;40975;50.390;8.640;2023-04-03T07:44:51;100363.50;;;7.66;68.60
54389;BME280;40975;50.390;8.640;2023-04-03T07:47:17;100361.47;;;7.84;67.53
54389;BME280;40975;50.390;8.640;2023-04-03T07:49:43;100364.09;;;7.28;68.55
54389;BME280;40975;50.390;8.640;2023-04-03T07:52:08;100372.28;;;7.09;69.92
54389;BME280;40975;50.390;8.640;2023-04-03T07:54:34;100374.09;;;7.52;69.94
54389;BME280;40975;50.390;8.640;2023-04-03T07:56:59;100367.31;;;7.89;68.31
54389;BME280;40975;50.390;8.640;2023-04-03T07:59:25;100361.78;;;7.65;68.34
54389;BME280;40975;50.390;8.640;2023-04-03T08:01:50;100375.59;;;7.56;66.25
54389;BME280;40975;50.390;8.640;2023-04-03T08:04:16;100370.75;;;8.04;65.38
54389;BME280;40975;50.390;8.640;2023-04-03T08:06:41;100382.44;;;8.15;64.84
54389;BME280;40975;50.390;8.640;2023-04-03T08:09:07;100368.28;;;8.56;62.87
54389;BME280;40975;50.390;8.640;2023-04-03T08:11:33;100366.91;;;8.50;60.83
54389;BME280;40975;50.390;8.640;2023-04-03T08:13:58;100373.41;;;8.72;61.19
54389;BME280;40975;50.390;8.640;2023-04-03T08:16:24;100373.50;;;8.58;60.12
54389;BME280;40975;50.390;8.640;2023-04-03T08:18:54;100373.31;;;8.86;60.17
54389;BME280;40975;50.390;8.640;2023-04-03T08:21:20;100375.84;;;9.77;58.85
54389;BME280;40975;50.390;8.640;2023-04-03T08:23:48;100377.84;;;9.86;56.99
54389;BME280;40975;50.390;8.640;2023-04-03T08:26:17;100379.78;;;10.33;56.58
54389;BME280;40975;50.390;8.640;2023-04-03T08:28:43;100372.03;;;10.89;53.83
54389;BME280;40975;50.390;8.640;2023-04-03T08:31:11;100371.69;;;10.58;52.98
54389;BME280;40975;50.390;8.640;2023-04-03T08:33:38;100369.88;;;10.48;54.15
54389;BME280;40975;50.390;8.640;2023-04-03T08:36:05;100367.47;;;11.48;52.75
54389;BME280;40975;50.390;8.640;2023-04-03T08:38:31;100368.41;;;12.25;51.86
54389;BME280;40975;50.390;8.640;2023-04-03T08:44:23;100364.78;;;11.60;48.98
54389;BME280;40975;50.390;8.640;2023-04-03T08:47:08;100375.28;;;11.84;50.69
54389;BME280;40975;50.390;8.640;2023-04-03T08:49:47;100379.72;;;12.06;49.87
54389;BME280;40975;50.390;8.640;2023-04-03T08:54:56;100401.00;;;13.76;45.45
54389;BME280;40975;50.390;8.640;2023-04-03T08:57:38;100403.84;;;13.43;45.71
54389;BME280;40975;50.390;8.640;2023-04-03T09:00:19;100404.94;;;13.19;46.11
54389;BME280;40975;50.390;8.640;2023-04-03T09:02:47;100406.59;;;11.80;48.07
54389;BME280;40975;50.390;8.640;2023-04-03T09:05:18;100405.72;;;12.47;45.78
54389;BME280;40975;50.390;8.640;2023-04-03T09:07:47;100405.50;;;11.03;50.22
54389;BME280;40975;50.390;8.640;2023-04-03T09:10:15;100401.03;;;13.45;47.68
54389;BME280;40975;50.390;8.640;2023-04-03T09:12:55;100396.84;;;13.31;45.12
54389;BME280;40975;50.390;8.640;2023-04-03T09:15:24;100407.34;;;13.44;44.68
54389;BME280;40975;50.390;8.640;2023-04-03T09:18:00;100408.66;;;10.37;48.86
54389;BME280;40975;50.390;8.640;2023-04-03T09:21:10;100403.72;;;12.60;46.94
54389;BME280;40975;50.390;8.640;2023-04-03T09:23:45;100402.38;;;11.66;47.35
54389;BME280;40975;50.390;8.640;2023-04-03T09:26:23;100403.47;;;13.36;45.79
54389;BME280;40975;50.390;8.640;2023-04-03T09:28:52;100407.84;;;13.68;45.43
54389;BME280;40975;50.390;8.640;2023-04-03T09:31:25;100404.16;;;14.10;42.81
54389;BME280;40975;50.390;8.640;2023-04-03T09:33:55;100396.75;;;15.40;41.15
54389;BME280;40975;50.390;8.640;2023-04-03T09:39:29;100403.88;;;15.49;41.16
54389;BME280;40975;50.390;8.640;2023-04-03T09:42:05;100393.22;;;14.43;41.96
54389;BME280;40975;50.390;8.640;2023-04-03T09:44:37;100395.59;;;14.07;41.34
54389;BME280;40975;50.390;8.640;2023-04-03T09:49:44;100394.84;;;15.13;39.82
54389;BME280;40975;50.390;8.640;2023-04-03T09:52:23;100401.25;;;14.82;41.10
54389;BME280;40975;50.390;8.640;2023-04-03T09:54:49;100400.25;;;14.54;40.94
54389;BME280;40975;50.390;8.640;2023-04-03T09:57:14;100398.47;;;15.31;37.57
54389;BME280;40975;50.390;8.640;2023-04-03T09:59:45;100399.94;;;15.81;39.44
54389;BME280;40975;50.390;8.640;2023-04-03T10:04:39;100400.13;;;14.65;38.26
54389;BME280;40975;50.390;8.640;2023-04-03T10:07:26;100400.75;;;15.92;38.50
54389;BME280;40975;50.390;8.640;2023-04-03T10:09:57;100393.47;;;16.02;36.87
54389;BME280;40975;50.390;8.640;2023-04-03T10:12:23;100396.63;;;16.15;37.18
54389;BME280;40975;50.390;8.640;2023-04-03T10:14:59;100404.13;;;16.12;37.74
54389;BME280;40975;50.390;8.640;2023-04-03T10:17:53;100390.44;;;15.31;39.66
54389;BME280;40975;50.390;8.640;2023-04-03T10:20:35;100395.75;;;14.64;40.06
54389;BME280;40975;50.390;8.640;2023-04-03T10:23:14;100395.06;;;14.62;39.21
54389;BME280;40975;50.390;8.640;2023-04-03T10:25:55;100390.84;;;14.69;36.11
54389;BME280;40975;50.390;8.640;2023-04-03T10:28:42;100398.75;;;15.28;39.34
54389;BME280;40975;50.390;8.640;2023-04-03T10:31:28;100393.66;;;14.87;39.48
54389;BME280;40975;50.390;8.640;2023-04-03T10:34:02;100389.59;;;14.73;39.85
54389;BME280;40975;50.390;8.640;2023-04-03T10:36:54;100388.16;;;14.50;36.48
54389;BME280;40975;50.390;8.640;2023-04-03T10:45:03;100385.03;;;13.86;41.46
54389;BME280;40975;50.390;8.640;2023-04-03T10:47:43;100379.56;;;14.07;41.79
54389;BME280;40975;50.390;8.640;2023-04-03T10:50:26;100382.38;;;14.05;39.91
54389;BME280;40975;50.390;8.640;2023-04-03T10:55:42;100381.53;;;13.54;42.60
54389;BME280;40975;50.390;8.640;2023-04-03T10:58:20;100365.63;;;12.27;44.21
54389;BME280;40975;50.390;8.640;2023-04-03T11:00:51;100362.97;;;11.72;44.74
54389;BME280;40975;50.390;8.640;2023-04-03T11:03:35;100372.63;;;11.84;45.87
54389;BME280;40975;50.390;8.640;2023-04-03T11:06:05;100370.97;;;11.15;47.14
54389;BME280;40975;50.390;8.640;2023-04-03T11:08:38;100369.78;;;11.97;45.28
54389;BME280;40975;50.390;8.640;2023-04-03T11:11:15;100368.41;;;11.59;43.06
54389;BME280;40975;50.390;8.640;2023-04-03T11:14:42;100364.34;;;12.10;44.48
54389;BME280;40975;50.390;8.640;2023-04-03T11:16:46;100362.72;;;11.97;46.36
54389;BME280;40975;50.390;8.640;2023-04-03T11:23:02;100365.63;;;11.03;47.60
54389;BME280;40975;50.390;8.640;2023-04-03T11:25:29;100363.13;;;10.55;47.73
54389;BME280;40975;50.390;8.640;2023-04-03T11:28:04;100356.72;;;9.60;47.42
54389;BME280;40975;50.390;8.640;2023-04-03T11:35:49;100347.56;;;10.02;48.82
54389;BME280;40975;50.390;8.640;2023-04-03T11:38:21;100335.59;;;10.20;44.19
54389;BME280;40975;50.390;8.640;2023-04-03T11:40:49;100331.25;;;9.95;45.77
54389;BME280;40975;50.390;8.640;2023-04-03T11:43:25;100342.22;;;10.39;46.63
54389;BME280;40975;50.390;8.640;2023-04-03T11:46:06;100334.72;;;10.20;43.03
54389;BME280;40975;50.390;8.640;2023-04-03T11:51:02;100329.28;;;10.10;45.15
54389;BME280;40975;50.390;8.640;2023-04-03T11:53:37;100325.06;;;10.07;44.60
54389;BME280;40975;50.390;8.640;2023-04-03T12:01:50;100324.69;;;9.63;49.01
54389;BME280;40975;50.390;8.640;2023-04-03T12:04:18;100331.66;;;9.27;49.67
54389;BME280;40975;50.390;8.640;2023-04-03T12:10:13;100302.88;;;8.84;43.54
54389;BME280;40975;50.390;8.640;2023-04-03T12:12:43;100306.75;;;9.30;48.76
54389;BME280;40975;50.390;8.640;2023-04-03T12:17:47;100316.06;;;9.36;51.18
54389;BME280;40975;50.390;8.640;2023-04-03T12:26:20;100301.00;;;7.80;51.36
54389;BME280;40975;50.390;8.640;2023-04-03T12:28:48;100305.50;;;8.05;51.31
54389;BME280;40975;50.390;8.640;2023-04-03T12:31:16;100297.31;;;8.22;49.12
54389;BME280;40975;50.390;8.640;2023-04-03T12:36:49;100305.22;;;9.01;50.08
54389;BME280;40975;50.390;8.640;2023-04-03T12:39:34;100297.38;;;9.13;49.64
54389;BME280;40975;50.390;8.640;2023-04-03T12:44:58;100295.69;;;8.86;50.94
54389;BME280;40975;50.390;8.640;2023-04-03T12:47:33;100292.91;;;8.36;50.46
54389;BME280;40975;50.390;8.640;2023-04-03T12:50:02;100293.38;;;8.55;47.50
54389;BME280;40975;50.390;8.640;2023-04-03T12:52:36;100280.03;;;8.57;48.29
54389;BME280;40975;50.390;8.640;2023-04-03T12:55:14;100271.66;;;7.97;45.72
54389;BME280;40975;50.390;8.640;2023-04-03T12:57:40;100274.31;;;8.10;47.79
54389;BME280;40975;50.390;8.640;2023-04-03T13:00:19;100276.84;;;8.65;49.57
54389;BME280;40975;50.390;8.640;2023-04-03T13:02:44;100278.53;;;8.92;51.67
54389;BME280;40975;50.390;8.640;2023-04-03T13:05:16;100268.38;;;8.60;49.76
54389;BME280;40975;50.390;8.640;2023-04-03T13:07:42;100275.56;;;8.96;50.50
54389;BME280;40975;50.390;8.640;2023-04-03T13:12:35;100269.13;;;8.88;50.63
54389;BME280;40975;50.390;8.640;2023-04-03T13:15:12;100245.44;;;8.47;51.38
54389;BME280;40975;50.390;8.640;2023-04-03T13:17:39;100263.81;;;8.62;52.08
54389;BME280;40975;50.390;8.640;2023-04-03T13:20:21;100265.06;;;8.43;50.54
54389;BME280;40975;50.390;8.640;2023-04-03T13:25:30;100261.19;;;8.62;50.51
54389;BME280;40975;50.390;8.640;2023-04-03T13:27:58;100259.06;;;8.67;48.54
54389;BME280;40975;50.390;8.640;2023-04-03T13:30:30;100264.09;;;8.18;46.66
54389;BME280;40975;50.390;8.640;2023-04-03T13:33:00;100260.47;;;8.06;48.09
54389;BME280;40975;50.390;8.640;2023-04-03T13:35:32;100264.72;;;8.22;48.51
54389;BME280;40975;50.390;8.640;2023-04-03T13:38:02;100249.09;;;7.91;47.53
54389;BME280;40975;50.390;8.640;2023-04-03T13:40:28;100249.28;;;8.29;50.97
54389;BME280;40975;50.390;8.640;2023-04-03T13:43:02;100245.47;;;8.46;52.05
54389;BME280;40975;50.390;8.640;2023-04-03T13:45:30;100245.31;;;8.62;52.59
54389;BME280;40975;50.390;8.640;2023-04-03T13:48:17;100246.25;;;8.61;51.36
54389;BME280;40975;50.390;8.640;2023-04-03T13:50:58;100235.69;;;8.48;52.12
54389;BME280;40975;50.390;8.640;2023-04-03T13:53:25;100238.72;;;8.42;52.38
54389;BME280;40975;50.390;8.640;2023-04-03T13:58:28;100227.41;;;8.39;50.10
54389;BME280;40975;50.390;8.640;2023-04-03T14:01:14;100233.41;;;8.29;51.83
54389;BME280;40975;50.390;8.640;2023-04-03T14:03:51;100231.50;;;8.18;50.71
54389;BME280;40975;50.390;8.640;2023-04-03T14:06:17;100218.78;;;7.97;49.86
54389;BME280;40975;50.390;8.640;2023-04-03T14:08:44;100227.59;;;8.11;51.31
54389;BME280;40975;50.390;8.640;2023-04-03T14:11:14;100227.16;;;8.04;51.48
54389;BME280;40975;50.390;8.640;2023-04-03T14:13:40;100221.88;;;8.30;50.41
54389;BME280;40975;50.390;8.640;2023-04-03T14:16:06;100217.63;;;8.01;48.77
54389;BME280;40975;50.390;8.640;2023-04-03T14:18:31;100223.22;;;7.97;53.35